Latest Weather Observations for Launceston Airport

IDT60801

Issued at 4:01 am EST Sunday 2 August 2015 (issued every 30 minutes, with the page automatically refreshed every 10 minutes)

About weather observations | Map of weather stations | Latest weather observations for TAS | Other Formats
Station Details ID: 091311 Name: LAUNCESTON AIRPORT Lat: -41.55 Lon: 147.21 Height: 166.9 m
Data from the previous 72 hours. | See also: Recent months at Launceston Airport
Date/Time
EST
Temp
°C
App
Temp
°C
Dew
Point
Rel
Hum
%
Delta-T
°C
Wind Press
QNH
hPa
Press
MSL
hPa
Rain
since 9 am
mm
Dir
 
Spd
km/h
Gust
km/h
Spd
kts
Gust
kts
02/04:00am 4.6 -1.6 2.3 85 0.9 NNW 24 32 13 17 1006.6 1006.9 0.2
02/03:30am 4.5 -1.7 1.9 83 1.0 NNW 24 30 13 16 1007.1 1007.4 0.2
02/03:00am 4.5 -1.0 2.0 84 1.0 NNW 20 30 11 16 1007.6 1007.9 0.2
02/02:30am 3.5 -1.5 1.4 86 0.8 NW 17 22 9 12 1008.1 1008.4 0.2
02/02:00am 3.9 -1.6 1.6 85 0.9 NNW 20 30 11 16 1008.2 1008.5 0.2
02/01:30am 4.1 -1.9 1.3 82 1.1 NNW 22 28 12 15 1008.3 1008.6 0.2
02/01:00am 4.3 -1.1 1.3 81 1.2 N 19 24 10 13 1008.4 1008.7 0.2
02/12:30am 3.8 -1.7 0.8 81 1.2 N 19 24 10 13 1008.9 1009.2 0.2
02/12:00am 4.0 -1.6 1.2 82 1.1 NNW 20 26 11 14 1009.2 1009.5 0.2
 
Date/Time
EST
Temp
°C
App
Temp
°C
Dew
Point
Rel
Hum
%
Delta-T
°C
Wind Press
QNH
hPa
Press
MSL
hPa
Rain
since 9 am
mm
Dir
 
Spd
km/h
Gust
km/h
Spd
kts
Gust
kts
01/11:30pm 2.7 -2.5 0.4 85 0.9 NW 17 20 9 11 1009.4 1009.7 0.2
01/11:00pm 3.1 -2.6 0.8 85 0.9 NNW 20 24 11 13 1009.5 1009.8 0.2
01/10:30pm 3.3 -3.5 0.7 83 1.0 NNW 26 30 14 16 1009.6 1009.9 0.2
01/10:00pm 3.6 -2.4 1.0 83 1.0 NNW 22 28 12 15 1009.6 1009.9 0.2
01/09:30pm 3.8 -2.3 0.5 79 1.3 NNW 22 28 12 15 1009.9 1010.2 0.2
01/09:00pm 2.9 -2.3 0.3 83 1.0 NNW 17 22 9 12 1010.2 1010.5 0.2
01/08:30pm 3.3 -2.2 0.4 81 1.1 NNW 19 24 10 13 1010.4 1010.7 0.2
01/08:00pm 2.7 -1.8 -0.6 79 1.2 NNW 13 20 7 11 1010.3 1010.6 0.2
01/07:30pm 4.1 -1.4 0.4 77 1.4 N 19 24 10 13 1010.2 1010.5 0.2
01/07:00pm 3.7 -1.8 0.4 79 1.3 NNW 19 22 10 12 1010.1 1010.4 0.2
01/06:30pm 3.8 -1.7 0.3 78 1.3 NNW 19 22 10 12 1009.5 1009.8 0.2
01/06:00pm 4.7 -0.8 0.5 74 1.6 NNW 19 22 10 12 1009.1 1009.4 0.2
01/05:30pm 5.6 0.0 0.2 68 2.1 NNW 19 22 10 12 1008.5 1008.8 0.2
01/05:00pm 5.8 -0.1 -0.7 63 2.5 NNW 20 24 11 13 1008.2 1008.5 0.2
01/04:30pm 7.6 0.6 -0.8 55 3.3 NW 26 32 14 17 1007.8 1008.1 0.2
01/04:00pm 8.5 1.1 -1.0 51 3.7 WNW 28 39 15 21 1007.6 1007.9 0.2
01/03:30pm 8.3 0.4 -1.2 51 3.7 NW 30 39 16 21 1007.4 1007.7 0.2
01/03:00pm 9.4 2.8 -0.5 50 4.0 WNW 24 37 13 20 1007.2 1007.5 0.2
01/02:30pm 9.6 3.2 -1.4 46 4.3 NW 22 33 12 18 1006.8 1007.1 0.2
01/02:00pm 9.2 2.0 -2.1 45 4.3 WNW 26 41 14 22 1006.5 1006.8 0.2
01/01:30pm 9.0 0.6 -2.3 45 4.3 WNW 32 39 17 21 1006.5 1006.8 0.2
01/01:00pm 9.2 1.6 -1.8 46 4.3 W 28 43 15 23 1006.1 1006.3 0.2
01/12:32pm 9.2 1.8 -0.4 51 3.8 WNW 28 46 15 25 1006.0 1006.2 0.2
01/12:30pm 9.3 2.8 0.0 52 3.7 WNW 24 33 13 18 1006.1 1006.3 0.2
01/12:00pm 8.6 0.5 -0.2 54 3.5 WNW 32 44 17 24 1005.7 1005.9 0.2
01/11:30am 8.1 0.8 0.1 57 3.2 WNW 28 39 15 21 1005.8 1006.0 0.2
01/11:00am 8.2 0.2 0.2 57 3.2 WNW 32 41 17 22 1005.5 1005.8 0.2
01/10:30am 8.0 0.3 0.0 57 3.2 WNW 30 41 16 22 1004.5 1004.8 0.2
01/10:00am 8.0 0.9 1.6 64 2.7 WNW 28 39 15 21 1004.2 1004.5 0.2
01/09:30am 7.7 0.7 2.0 67 2.4 WNW 28 43 15 23 1003.3 1003.7 0.0
01/09:00am 7.5 0.4 3.7 77 1.7 WNW 30 43 16 23 1002.8 1003.2 11.0
01/08:30am 7.0 1.7 5.2 88 0.8 NW 22 30 12 16 1001.7 1002.0 11.0
01/08:00am 6.5 0.7 4.5 87 0.9 NNW 24 32 13 17 1001.1 1001.4 11.0
01/07:30am 7.4 1.0 5.4 87 0.9 NNW 28 41 15 22 1000.3 1000.6 11.0
01/07:00am 8.1 1.1 6.1 87 0.9 NW 32 44 17 24 999.8 1000.1 11.0
01/06:39am 8.3 1.3 6.8 90 0.7 NW 33 43 18 23 999.3 999.7 10.6
01/06:37am 8.3 1.3 6.9 91 0.7 NW 33 43 18 23 999.5 999.8 10.6
01/06:30am 8.4 1.1 7.3 93 0.5 NW 35 46 19 25 999.3 999.7 10.2
01/06:00am 8.2 -0.2 7.3 94 0.4 NNW 41 52 22 28 999.2 999.6 7.8
01/05:35am 7.9 -0.6 7.0 94 0.4 NNW 41 52 22 28 998.9 999.3 7.2
01/05:30am 7.9 -1.2 7.0 94 0.4 NNW 44 57 24 31 999.0 999.4 7.0
01/05:10am 7.7 -0.4 6.8 94 0.4 NNW 39 50 21 27 999.3 999.7 6.4
01/05:00am 7.7 -0.8 6.8 94 0.4 NNW 41 54 22 29 999.7 1000.0 6.4
01/04:30am 7.4 -0.1 6.2 92 0.5 NNW 35 52 19 28 1000.2 1000.5 5.4
01/04:19am 7.2 -1.2 5.8 91 0.6 NNW 39 54 21 29 1000.5 1000.8 5.0
01/04:00am 7.1 -0.9 5.7 91 0.6 NNW 37 50 20 27 1000.7 1001.0 4.6
01/03:47am 6.9 -1.5 5.4 90 0.7 NNW 39 52 21 28 1001.2 1001.5 4.4
01/03:39am 7.0 -1.8 5.5 90 0.7 NNW 41 52 22 28 1001.4 1001.7 4.4
01/03:38am 7.0 -1.8 5.5 90 0.7 NNW 41 54 22 29 1001.4 1001.7 4.4
01/03:32am 7.0 -2.2 5.5 90 0.7 NNW 43 54 23 29 1001.6 1001.9 4.2
01/03:30am 7.0 -2.2 5.5 90 0.7 NNW 43 54 23 29 1001.6 1001.9 4.2
01/03:23am 6.9 -1.1 5.5 91 0.6 NNW 37 48 20 26 1001.8 1002.1 3.8
01/03:08am 7.0 -2.2 5.5 90 0.7 NNW 43 54 23 29 1002.2 1002.6 3.6
01/03:00am 7.1 -1.3 5.4 89 0.8 NNW 39 50 21 27 1002.5 1002.9 3.4
01/02:53am 7.1 -1.0 5.4 89 0.8 NNW 37 50 20 27 1002.8 1003.2 3.2
01/02:30am 7.5 -1.0 5.1 85 1.1 NNW 39 52 21 28 1003.6 1004.0 2.2
01/02:23am 7.7 -0.8 5.2 84 1.1 NNW 39 52 21 28 1003.4 1003.8 1.8
01/02:02am 7.5 -1.6 5.8 89 0.8 NNW 43 59 23 32 1003.5 1003.9 1.6
01/02:00am 7.5 -1.6 5.8 89 0.8 NNW 43 59 23 32 1003.6 1004.0 1.6
01/01:50am 7.3 -2.5 5.4 88 0.9 NNW 46 70 25 38 1003.9 1004.3 1.4
01/01:47am 7.5 -2.3 5.5 87 0.9 NNW 46 70 25 38 1004.0 1004.4 1.2
01/01:38am 7.7 -1.2 5.3 85 1.1 NNW 41 59 22 32 1003.9 1004.3 1.0
01/01:30am 7.5 -1.0 5.3 86 1.0 NNW 39 52 21 28 1004.0 1004.4 1.0
01/01:21am 7.4 -1.9 5.0 85 1.1 NNW 43 56 23 30 1004.2 1004.6 1.0
01/01:03am 6.9 -1.7 4.7 86 1.0 NNW 39 46 21 25 1004.8 1005.2 0.8
01/01:00am 6.9 -1.3 4.6 85 1.0 NNW 37 46 20 25 1004.9 1005.3 0.6
01/12:30am 6.9 -0.7 3.7 80 1.4 NNW 33 44 18 24 1005.9 1006.2 0.6
01/12:00am 6.8 -0.9 3.2 78 1.5 NNW 33 50 18 27 1006.8 1007.1 0.6
 
Date/Time
EST
Temp
°C
App
Temp
°C
Dew
Point
Rel
Hum
%
Delta-T
°C
Wind Press
QNH
hPa
Press
MSL
hPa
Rain
since 9 am
mm
Dir
 
Spd
km/h
Gust
km/h
Spd
kts
Gust
kts
31/11:30pm 6.8 -1.6 3.8 81 1.3 NNW 37 48 20 26 1007.9 1008.3 0.6
31/11:00pm 6.7 -0.7 3.9 82 1.2 NNW 32 41 17 22 1008.1 1008.5 0.6
31/10:30pm 6.8 0.3 4.8 87 0.9 NNW 28 35 15 19 1008.3 1008.7 0.6
31/10:03pm 6.6 0.3 5.6 93 0.4 NNW 28 37 15 20 1009.2 1009.6 0.6
31/10:00pm 6.6 0.3 5.6 93 0.4 NNW 28 37 15 20 1009.3 1009.7 0.6
31/09:53pm 6.6 0.3 5.7 94 0.4 NNW 28 37 15 20 1009.3 1009.7 0.6
31/09:30pm 6.4 1.2 5.7 95 0.3 NNW 22 30 12 16 1009.7 1010.1 0.4
31/09:21pm 6.4 0.1 5.5 94 0.4 NNW 28 37 15 20 1010.0 1010.4 0.4
31/09:00pm 6.4 0.1 5.7 95 0.3 NNW 28 35 15 19 1010.3 1010.7 0.2
31/08:37pm 6.4 0.5 5.7 95 0.3 NNW 26 33 14 18 1010.9 1011.3 0.2
31/08:30pm 6.3 0.7 5.6 95 0.3 NNW 24 33 13 18 1010.9 1011.3 0.2
31/08:23pm 6.2 0.6 5.5 95 0.3 NNW 24 32 13 17 1010.9 1011.3 0.2
31/08:21pm 6.2 0.2 5.5 95 0.3 NNW 26 32 14 17 1011.0 1011.4 0.2
31/08:00pm 6.0 1.3 5.1 94 0.4 NNW 19 24 10 13 1011.5 1011.9 0.2
31/07:57pm 6.0 1.3 5.1 94 0.4 NNW 19 24 10 13 1011.5 1011.9 0.2
31/07:44pm 6.1 1.2 5.1 93 0.4 NNW 20 24 11 13 1011.5 1011.9 0.0
31/07:30pm 5.9 1.0 4.9 93 0.4 NNW 20 26 11 14 1011.4 1011.8 0.0
31/07:00pm 5.9 -0.2 4.9 93 0.4 NNW 26 33 14 18 1012.0 1012.4 0.0
31/06:30pm 5.5 0.0 4.2 91 0.6 NNW 22 30 12 16 1012.0 1012.4 0.0
31/06:00pm 6.1 0.9 3.8 85 1.0 NNW 20 28 11 15 1012.3 1012.7 0.0
31/05:30pm 6.2 -1.5 3.5 83 1.1 NNW 33 43 18 23 1011.8 1012.3 0.0
31/05:00pm 6.5 -1.0 3.7 82 1.2 NNW 32 43 17 23 1011.5 1011.9 0.0
31/04:30pm 7.3 0.6 3.4 76 1.7 NNW 28 35 15 19 1012.0 1012.4 0.0
31/04:00pm 7.8 0.7 3.3 73 1.9 NNW 30 39 16 21 1012.3 1012.7 0.0
31/03:30pm 7.8 0.0 2.9 71 2.1 NNW 33 46 18 25 1012.7 1013.1 0.0
31/03:00pm 9.3 2.2 3.3 66 2.6 NNW 30 43 16 23 1013.1 1013.5 0.0
31/02:30pm 9.7 2.1 2.8 62 3.0 NNW 32 43 17 23 1013.2 1013.6 0.0
31/02:00pm 8.5 0.7 1.9 63 2.8 NNW 32 39 17 21 1013.5 1013.9 0.0
31/01:30pm 9.2 3.0 1.9 60 3.1 NNW 24 35 13 19 1013.9 1014.3 0.0
31/01:00pm 8.6 1.5 1.1 59 3.1 NNW 28 37 15 20 1014.3 1014.7 0.0
31/12:30pm 9.3 2.8 2.6 63 2.9 NNW 26 33 14 18 1014.6 1015.0 0.0
31/12:00pm 8.9 2.9 3.1 67 2.5 NNW 24 30 13 16 1015.1 1015.5 0.0
31/11:30am 7.9 1.3 2.0 66 2.5 NNW 26 33 14 18 1015.6 1016.0 0.0
31/11:00am 7.6 1.1 2.5 70 2.1 NNW 26 32 14 17 1016.1 1016.5 0.0
31/10:30am 6.8 -0.2 1.7 70 2.1 NNW 28 33 15 18 1015.9 1016.3 0.0
31/10:00am 6.0 0.1 1.5 73 1.8 NNW 22 28 12 15 1015.6 1016.0 0.0
31/09:30am 4.7 -0.4 0.8 76 1.5 NNW 17 20 9 11 1015.1 1015.5 0.0
31/09:00am 3.3 -0.7 0.4 81 1.1 N 11 13 6 7 1015.3 1015.7 6.0
31/08:30am 1.9 -2.9 0.1 88 0.7 NNW 15 17 8 9 1015.4 1015.8 6.0
31/08:00am 0.6 -4.7 -0.7 91 0.5 NNW 17 19 9 10 1015.0 1015.4 6.0
31/07:30am -0.9 -5.7 -2.2 91 0.4 NNW 13 17 7 9 1014.9 1015.3 6.0
31/07:00am -1.0 -6.1 -2.3 91 0.4 NNW 15 17 8 9 1014.3 1014.7 6.0
31/06:30am -0.3 -5.0 -1.7 90 0.5 N 13 15 7 8 1013.9 1014.3 6.0
31/06:00am -0.2 -4.9 -1.5 91 0.4 N 13 17 7 9 1013.6 1014.0 6.0
31/05:30am -0.2 -5.3 -1.9 88 0.6 N 15 17 8 9 1013.4 1013.8 6.0
31/05:00am 1.9 -3.0 -0.2 86 0.8 N 15 19 8 10 1013.2 1013.6 6.0
31/04:30am -0.2 -5.3 -2.1 87 0.6 N 15 17 8 9 1012.8 1013.2 6.0
31/04:00am 1.1 -3.1 -1.1 85 0.8 N 11 13 6 7 1012.5 1012.9 6.0
31/03:30am 1.9 -2.2 -0.5 84 0.9 N 11 13 6 7 1012.1 1012.5 6.0
31/03:00am 3.7 -1.7 -1.1 71 1.8 WNW 17 20 9 11 1011.6 1012.0 6.0
31/02:30am 3.9 -1.0 -0.3 74 1.6 NW 15 17 8 9 1011.3 1011.7 6.0
31/02:00am 4.2 -1.1 -0.4 72 1.7 WNW 17 20 9 11 1011.0 1011.4 6.0
31/01:30am 5.8 -0.1 -0.9 62 2.5 W 20 26 11 14 1010.4 1010.8 6.0
31/01:00am 4.0 -0.4 0.5 78 1.4 WNW 13 17 7 9 1010.0 1010.4 6.0
31/12:30am 5.4 1.7 0.2 69 2.0 SSE 9 17 5 9 1009.0 1009.4 6.0
31/12:00am 4.1 -1.1 2.3 88 0.7 N 19 24 10 13 1008.5 1008.9 6.0
 
Date/Time
EST
Temp
°C
App
Temp
°C
Dew
Point
Rel
Hum
%
Delta-T
°C
Wind Press
QNH
hPa
Press
MSL
hPa
Rain
since 9 am
mm
Dir
 
Spd
km/h
Gust
km/h
Spd
kts
Gust
kts
30/11:30pm 5.0 0.7 1.1 76 1.5 NW 13 17 7 9 1007.7 1008.1 6.0
30/11:00pm 6.2 0.5 2.7 78 1.5 WNW 22 30 12 16 1006.9 1007.2 6.0
30/10:30pm 7.1 2.0 3.3 77 1.6 WNW 19 24 10 13 1006.5 1006.8 6.0
30/10:00pm 7.6 2.5 4.0 78 1.6 WNW 20 28 11 15 1005.5 1005.9 6.0
30/09:30pm 7.4 2.6 5.7 89 0.8 NNW 20 24 11 13 1004.7 1005.1 6.0
30/09:00pm 7.3 2.4 5.3 87 0.9 NW 20 26 11 14 1003.8 1004.2 6.0
30/08:30pm 8.2 1.9 5.8 85 1.1 NW 28 35 15 19 1003.0 1003.4 6.0
30/08:19pm 8.3 1.4 7.2 93 0.5 NNW 33 43 18 23 1003.2 1003.6 6.0
30/08:00pm 8.2 1.0 7.6 96 0.3 NNW 35 46 19 25 1003.2 1003.6 5.6
30/07:30pm 8.0 -0.4 7.2 95 0.4 NNW 41 57 22 31 1003.0 1003.4 4.6
30/07:19pm 7.9 0.6 7.0 94 0.4 NNW 35 54 19 29 1003.1 1003.5 4.6
30/07:02pm 7.8 0.0 6.7 93 0.5 NNW 37 50 20 27 1003.2 1003.6 4.2
30/07:00pm 7.7 -0.1 6.6 93 0.5 NNW 37 50 20 27 1003.3 1003.7 4.2
30/06:30pm 7.6 0.1 6.5 93 0.5 NNW 35 44 19 24 1003.7 1004.1 3.6
30/06:04pm 7.5 -0.4 6.3 92 0.6 NNW 37 50 20 27 1003.9 1004.3 3.2
30/06:00pm 7.5 -0.8 6.3 92 0.6 NNW 39 50 21 27 1004.1 1004.5 3.2
30/05:30pm 7.3 -1.4 6.2 93 0.5 NNW 41 52 22 28 1004.5 1004.9 3.0
30/05:12pm 7.2 -1.5 6.1 93 0.5 NNW 41 54 22 29 1004.7 1005.1 2.2
30/05:00pm 7.2 -1.9 6.1 93 0.5 NNW 43 54 23 29 1004.9 1005.3 2.0
30/04:59pm 7.2 -1.9 6.0 92 0.5 NNW 43 54 23 29 1004.8 1005.2 2.0
30/04:50pm 7.2 -1.9 6.0 92 0.5 NNW 43 61 23 33 1004.9 1005.3 1.8
30/04:49pm 7.2 -1.9 5.8 91 0.6 NNW 43 61 23 33 1004.9 1005.3 1.8
30/04:39pm 7.3 -2.4 5.8 90 0.7 NNW 46 59 25 32 1005.1 1005.5 1.6
30/04:30pm 7.5 -1.8 6.0 90 0.7 NNW 44 61 24 33 1005.3 1005.7 1.2
30/04:22pm 7.5 -1.6 6.1 91 0.6 NNW 43 61 23 33 1005.3 1005.7 1.0
30/04:21pm 7.5 -1.2 6.1 91 0.6 NNW 41 57 22 31 1005.4 1005.8 1.0
30/04:17pm 7.4 -0.9 6.0 91 0.6 NNW 39 54 21 29 1005.4 1005.8 0.8
30/04:05pm 7.3 -2.0 5.9 91 0.6 NNW 44 63 24 34 1005.8 1006.1 0.6
30/04:00pm 7.4 -1.9 6.0 91 0.6 NNW 44 59 24 32 1005.9 1006.2 0.4
30/03:54pm 7.4 -1.7 6.0 91 0.6 NNW 43 57 23 31 1005.9 1006.2 0.4
30/03:53pm 7.4 -1.7 6.0 91 0.6 NNW 43 57 23 31 1005.9 1006.2 0.4
30/03:32pm 7.8 -1.3 6.1 89 0.8 NNW 43 61 23 33 1006.2 1006.5 0.2
30/03:30pm 7.7 -1.4 5.8 88 0.9 NNW 43 59 23 32 1006.3 1006.6 0.2
30/03:04pm 8.3 -1.4 5.6 83 1.2 NNW 46 65 25 35 1006.5 1006.8 0.2
30/03:00pm 8.3 -1.0 5.8 84 1.1 NNW 44 57 24 31 1006.9 1007.2 0.2
30/02:30pm 9.1 -2.0 4.7 74 2.0 NNW 52 70 28 38 1006.9 1007.2 0.2
30/02:13pm 9.7 -1.4 4.3 69 2.4 NNW 52 72 28 39 1007.3 1007.7 0.2
30/02:00pm 9.8 -0.9 4.6 70 2.3 NNW 50 65 27 35 1007.8 1008.2 0.2
30/01:30pm 10.3 -1.1 4.7 68 2.5 NNW 54 72 29 39 1008.2 1008.6 0.2
30/01:10pm 10.3 -0.7 4.9 69 2.5 NNW 52 72 28 39 1008.8 1009.2 0.0
30/01:00pm 10.1 -0.9 4.9 70 2.4 NNW 52 67 28 36 1009.0 1009.4 0.0
30/12:35pm 10.3 0.4 4.7 68 2.5 NNW 46 65 25 35 1009.8 1010.2 0.0
30/12:30pm 10.2 0.4 5.2 71 2.3 NNW 46 59 25 32 1010.0 1010.4 0.0
30/12:04pm 9.8 0.9 5.0 72 2.2 NNW 41 61 22 33 1011.1 1011.5 0.0
30/12:00pm 9.9 0.8 5.7 75 1.9 NNW 43 54 23 29 1011.4 1011.8 0.0
30/11:30am 9.6 1.2 5.4 75 1.9 NNW 39 56 21 30 1012.5 1012.9 0.0
30/11:24am 9.5 1.4 5.1 74 2.0 NNW 37 56 20 30 1012.5 1012.9 0.0
30/11:00am 9.5 2.4 5.5 76 1.8 NNW 32 44 17 24 1013.3 1013.7 0.0
30/10:30am 9.2 2.2 5.9 80 1.5 NNW 32 44 17 24 1014.4 1014.8 0.0
30/10:00am 9.1 2.1 6.0 81 1.4 NNW 32 43 17 23 1014.7 1015.1 0.0
30/09:30am 8.9 1.9 6.2 83 1.3 NNW 32 44 17 24 1015.2 1015.6 0.0
30/09:00am 8.4 2.9 5.7 83 1.2 NNW 24 32 13 17 1015.7 1016.1 0.8
30/08:30am 8.0 2.8 5.6 85 1.1 NNW 22 30 12 16 1016.3 1016.7 0.8
30/08:00am 7.9 2.7 5.7 86 1.0 NNW 22 28 12 15 1016.6 1017.0 0.8
30/07:30am 7.7 3.1 5.7 87 0.9 NNW 19 22 10 12 1016.9 1017.4 0.8
30/07:00am 7.6 2.8 5.6 87 0.9 NNW 20 24 11 13 1016.9 1017.4 0.8
30/06:30am 7.5 2.9 5.6 88 0.9 NNW 19 22 10 12 1017.3 1017.8 0.8
30/06:00am 7.2 1.7 5.7 90 0.7 NNW 24 28 13 15 1017.7 1018.2 0.8
30/05:30am 7.3 1.3 5.3 87 0.9 NNW 26 32 14 17 1017.9 1018.4 0.8
30/05:00am 7.5 2.7 5.6 88 0.9 NNW 20 28 11 15 1018.4 1018.8 0.8
30/04:30am 7.2 2.6 5.5 89 0.8 N 19 24 10 13 1018.7 1019.1 0.8

Other Formats:

Comma delimited format used in spreadsheet applications
http://www.bom.gov.au/fwo/IDT60801/IDT60801.95966.axf

JavaScript Object Notation format (JSON) in row-major order
http://www.bom.gov.au/fwo/IDT60801/IDT60801.95966.json